createdAt,value
2022-09-30T00:01:25.847Z,5.57
2022-09-30T00:03:57.423Z,5.72
2022-09-30T00:06:27.981Z,5.15
2022-09-30T00:08:56.853Z,4.63
2022-09-30T00:11:34.012Z,4.80
2022-09-30T00:14:01.574Z,7.15
2022-09-30T00:16:33.009Z,5.75
2022-09-30T00:19:00.579Z,7.55
2022-09-30T00:21:28.734Z,5.68
2022-09-30T00:23:56.075Z,5.13
2022-09-30T00:26:24.389Z,6.95
2022-09-30T00:28:57.450Z,7.22
2022-09-30T00:31:26.804Z,5.95
2022-09-30T00:34:11.298Z,6.32
2022-09-30T00:36:45.553Z,7.93
2022-09-30T00:39:18.762Z,6.03
2022-09-30T00:41:52.084Z,6.10
2022-09-30T00:44:44.273Z,5.80
2022-09-30T00:47:23.403Z,7.70
2022-09-30T00:49:51.773Z,6.38
2022-09-30T00:52:19.384Z,4.90
2022-09-30T00:54:46.426Z,6.47
2022-09-30T00:57:14.616Z,5.75
2022-09-30T00:59:45.300Z,6.43
2022-09-30T01:02:14.614Z,7.50
2022-09-30T01:04:43.559Z,5.68
2022-09-30T01:07:11.679Z,6.00
2022-09-30T01:09:41.536Z,5.63
2022-09-30T01:12:15.600Z,4.97
2022-09-30T01:14:44.103Z,5.88
2022-09-30T01:17:25.910Z,5.88
2022-09-30T01:20:22.192Z,8.60
2022-09-30T01:23:16.721Z,6.40
2022-09-30T01:26:11.448Z,6.50
2022-09-30T01:28:55.250Z,7.22
2022-09-30T01:31:52.335Z,6.60
2022-09-30T01:34:19.260Z,5.18
2022-09-30T01:36:59.404Z,5.38
2022-09-30T01:40:04.109Z,6.45
2022-09-30T01:42:58.664Z,6.43
2022-09-30T01:45:54.954Z,5.50
2022-09-30T01:48:46.424Z,5.53
2022-09-30T01:51:25.229Z,4.78
2022-09-30T01:53:56.737Z,5.03
2022-09-30T01:56:23.634Z,5.32
2022-09-30T01:58:53.606Z,6.45
2022-09-30T02:01:28.377Z,4.57
2022-09-30T02:04:01.871Z,5.68
2022-09-30T02:06:35.485Z,5.75
2022-09-30T02:09:12.281Z,5.47
2022-09-30T02:11:42.304Z,5.82
2022-09-30T02:14:23.598Z,7.40
2022-09-30T02:16:59.510Z,7.60
2022-09-30T02:19:39.422Z,6.88
2022-09-30T02:22:13.356Z,7.18
2022-09-30T02:24:43.961Z,6.63
2022-09-30T02:27:17.057Z,7.22
2022-09-30T02:29:53.184Z,6.60
2022-09-30T02:32:28.167Z,6.82
2022-09-30T02:35:03.273Z,9.38
2022-09-30T02:37:55.710Z,9.23
2022-09-30T02:40:39.899Z,7.03
2022-09-30T02:43:07.769Z,7.20
2022-09-30T02:45:51.440Z,7.90
2022-09-30T02:48:38.053Z,8.35
2022-09-30T02:51:12.010Z,6.70
2022-09-30T02:53:57.461Z,7.93
2022-09-30T02:56:30.361Z,6.93
2022-09-30T02:58:58.222Z,7.38
2022-09-30T03:01:26.963Z,7.78
2022-09-30T03:03:56.610Z,10.63
2022-09-30T03:06:23.728Z,8.77
2022-09-30T03:08:53.042Z,9.77
2022-09-30T03:11:22.956Z,10.93
2022-09-30T03:14:17.114Z,7.78
2022-09-30T03:16:45.302Z,9.48
2022-09-30T03:19:12.105Z,7.55
2022-09-30T03:22:06.638Z,9.23
2022-09-30T03:24:55.808Z,6.55
2022-09-30T03:27:22.677Z,8.93
2022-09-30T03:29:59.627Z,7.88
2022-09-30T03:32:56.322Z,10.18
2022-09-30T03:35:31.007Z,8.77
2022-09-30T03:38:16.362Z,8.55
2022-09-30T03:41:08.374Z,7.55
2022-09-30T03:43:49.217Z,7.70
2022-09-30T03:46:44.955Z,7.53
2022-09-30T03:49:21.838Z,6.78
2022-09-30T03:51:50.929Z,7.43
2022-09-30T03:54:18.330Z,8.10
2022-09-30T03:56:45.211Z,8.50
2022-09-30T03:59:17.263Z,8.32
2022-09-30T04:01:44.232Z,7.93
2022-09-30T04:04:12.560Z,7.88
2022-09-30T04:06:39.333Z,9.13
2022-09-30T04:09:06.278Z,8.60
2022-09-30T04:11:33.263Z,7.95
2022-09-30T04:14:01.682Z,8.43
2022-09-30T04:16:29.700Z,8.55
2022-09-30T04:18:59.564Z,7.53
2022-09-30T04:21:28.833Z,9.43
2022-09-30T04:23:56.623Z,6.40
2022-09-30T04:26:24.046Z,10.30
2022-09-30T04:28:52.554Z,7.60
2022-09-30T04:31:21.280Z,7.38
2022-09-30T04:33:48.368Z,8.10
2022-09-30T04:36:15.458Z,6.47
2022-09-30T04:38:42.479Z,11.23
2022-09-30T04:41:16.145Z,8.43
2022-09-30T04:43:46.843Z,8.63
2022-09-30T04:46:20.159Z,7.32
2022-09-30T04:48:48.658Z,8.35
2022-09-30T04:51:18.837Z,9.07
2022-09-30T04:53:49.300Z,6.60
2022-09-30T04:56:19.800Z,8.73
2022-09-30T04:58:47.261Z,8.25
2022-09-30T05:01:18.745Z,6.28
2022-09-30T05:03:46.963Z,8.57
2022-09-30T05:06:14.694Z,7.65
2022-09-30T05:08:46.018Z,8.00
2022-09-30T05:11:19.089Z,8.60
2022-09-30T05:13:47.035Z,7.35
2022-09-30T05:16:16.144Z,8.15
2022-09-30T05:18:46.158Z,7.68
2022-09-30T05:21:15.812Z,7.90
2022-09-30T05:23:42.726Z,8.77
2022-09-30T05:26:12.185Z,6.85
2022-09-30T05:28:41.351Z,9.07
2022-09-30T05:31:08.992Z,7.47
2022-09-30T05:33:36.439Z,8.25
2022-09-30T05:36:08.495Z,6.13
2022-09-30T05:38:36.070Z,7.93
2022-09-30T05:41:07.687Z,9.00
2022-09-30T05:43:38.565Z,6.65
2022-09-30T05:46:05.623Z,7.90
2022-09-30T05:48:32.734Z,10.73
2022-09-30T05:51:01.818Z,13.48
2022-09-30T05:53:32.107Z,9.50
2022-09-30T05:55:59.558Z,9.43
2022-09-30T05:58:27.621Z,9.20
2022-09-30T06:00:54.857Z,10.05
2022-09-30T06:03:23.205Z,9.27
2022-09-30T06:05:57.040Z,15.02
2022-09-30T06:08:24.074Z,12.70
2022-09-30T06:10:51.091Z,12.65
2022-09-30T06:13:17.979Z,11.05
2022-09-30T06:15:57.039Z,8.73
2022-09-30T06:18:27.704Z,6.40
2022-09-30T06:20:59.604Z,9.25
2022-09-30T06:23:27.250Z,5.68
2022-09-30T06:25:55.776Z,6.97
2022-09-30T06:28:24.121Z,8.13
2022-09-30T06:30:51.686Z,8.80
2022-09-30T06:33:18.586Z,7.60
2022-09-30T06:35:47.501Z,7.07
2022-09-30T06:38:16.154Z,6.47
2022-09-30T06:40:44.321Z,7.65
2022-09-30T06:43:11.877Z,8.20
2022-09-30T06:45:38.997Z,6.47
2022-09-30T06:48:08.807Z,7.50
2022-09-30T06:50:36.319Z,10.00
2022-09-30T06:53:08.359Z,7.65
2022-09-30T06:55:39.164Z,7.07
2022-09-30T06:58:11.365Z,7.97
2022-09-30T07:00:38.533Z,7.63
2022-09-30T07:03:09.939Z,7.72
2022-09-30T07:05:37.556Z,6.90
2022-09-30T07:08:04.586Z,7.28
2022-09-30T07:10:32.430Z,7.82
2022-09-30T07:13:00.255Z,7.80
2022-09-30T07:15:27.126Z,11.57
2022-09-30T07:17:54.840Z,8.45
2022-09-30T07:20:23.260Z,6.90
2022-09-30T07:22:50.649Z,7.28
2022-09-30T07:25:18.071Z,9.23
2022-09-30T07:27:45.303Z,8.73
2022-09-30T07:30:21.510Z,7.30
2022-09-30T07:32:53.587Z,9.38
2022-09-30T07:35:20.878Z,8.70
2022-09-30T07:37:47.806Z,8.57
2022-09-30T07:40:15.327Z,10.52
2022-09-30T07:42:46.010Z,10.25
2022-09-30T07:45:17.039Z,10.40
2022-09-30T07:47:44.294Z,8.38
2022-09-30T07:50:15.543Z,7.55
2022-09-30T07:52:42.495Z,9.32
2022-09-30T07:55:11.814Z,9.45
2022-09-30T07:57:39.127Z,8.07
2022-09-30T08:00:37.271Z,7.70
2022-09-30T08:02:55.272Z,11.88
2022-09-30T08:05:22.187Z,7.80
2022-09-30T08:07:49.167Z,8.25
2022-09-30T08:12:45.785Z,8.32
2022-09-30T08:15:12.542Z,7.75
2022-09-30T08:17:39.412Z,8.55
2022-09-30T08:20:12.352Z,8.30
2022-09-30T08:22:40.235Z,8.68
2022-09-30T08:25:07.498Z,8.27
2022-09-30T08:27:34.431Z,8.52
2022-09-30T08:30:04.682Z,7.05
2022-09-30T08:32:32.633Z,8.45
2022-09-30T08:35:00.827Z,8.73
2022-09-30T08:37:27.750Z,8.77
2022-09-30T08:39:55.246Z,9.23
2022-09-30T08:42:45.303Z,7.10
2022-09-30T08:45:29.325Z,3.78
2022-09-30T08:48:03.036Z,6.15
2022-09-30T08:50:53.486Z,6.95
2022-09-30T08:53:26.542Z,5.72
2022-09-30T08:55:57.201Z,6.38
2022-09-30T08:58:28.685Z,5.25
2022-09-30T09:01:01.191Z,6.15
2022-09-30T09:03:31.069Z,5.88
2022-09-30T09:06:04.118Z,6.47
2022-09-30T09:09:08.260Z,6.55
2022-09-30T09:11:39.931Z,6.47
2022-09-30T09:14:49.956Z,4.90
2022-09-30T09:18:04.326Z,5.85
2022-09-30T09:20:47.647Z,1.77
2022-09-30T09:23:14.728Z,7.13
2022-09-30T09:25:41.801Z,7.18
2022-09-30T09:28:35.521Z,13.80
2022-09-30T09:31:04.657Z,6.78
2022-09-30T09:33:39.403Z,7.72
2022-09-30T09:36:34.187Z,7.70
2022-09-30T09:39:13.324Z,7.80
2022-09-30T09:41:58.863Z,5.35
2022-09-30T09:44:36.752Z,7.45
2022-09-30T09:47:17.065Z,6.47
2022-09-30T09:49:57.531Z,6.85
2022-09-30T09:52:43.508Z,6.63
2022-09-30T09:55:12.145Z,7.68
2022-09-30T09:57:40.291Z,7.95
2022-09-30T10:00:46.293Z,6.03
2022-09-30T10:03:23.164Z,4.97
2022-09-30T10:06:04.250Z,9.20
2022-09-30T10:08:35.190Z,5.10
2022-09-30T10:11:06.390Z,6.32
2022-09-30T10:13:45.349Z,6.78
2022-09-30T10:16:37.216Z,6.82
2022-09-30T10:19:17.110Z,6.65
2022-09-30T10:21:44.161Z,6.05
2022-09-30T10:24:30.999Z,5.63
2022-09-30T10:26:58.620Z,7.68
2022-09-30T10:29:27.397Z,6.75
2022-09-30T10:31:58.981Z,6.95
2022-09-30T10:34:37.992Z,6.10
2022-09-30T10:37:11.720Z,5.65
2022-09-30T10:39:41.893Z,6.40
2022-09-30T10:42:26.255Z,6.03
2022-09-30T10:45:12.561Z,5.32
2022-09-30T10:47:46.437Z,5.60
2022-09-30T10:50:20.600Z,5.80
2022-09-30T10:52:55.305Z,4.77
2022-09-30T10:55:22.484Z,4.97
2022-09-30T10:57:53.038Z,5.80
2022-09-30T11:00:23.090Z,5.45
2022-09-30T11:03:18.271Z,4.80
2022-09-30T11:05:49.943Z,6.10
2022-09-30T11:08:35.537Z,4.88
2022-09-30T11:11:14.856Z,5.45
2022-09-30T11:14:02.183Z,6.83
2022-09-30T11:16:47.771Z,6.43
2022-09-30T11:19:28.995Z,6.28
2022-09-30T11:22:14.579Z,6.40
2022-09-30T11:24:46.342Z,5.90
2022-09-30T11:27:22.167Z,7.63
2022-09-30T11:30:07.290Z,5.03
2022-09-30T11:33:11.959Z,6.00
2022-09-30T11:36:17.073Z,3.90
2022-09-30T11:39:02.982Z,4.10
2022-09-30T11:41:29.818Z,5.75
2022-09-30T11:44:11.618Z,4.60
2022-09-30T11:46:45.566Z,4.00
2022-09-30T11:49:34.175Z,3.95
2022-09-30T11:52:23.892Z,4.40
2022-09-30T11:55:13.119Z,5.00
2022-09-30T11:58:08.364Z,4.55
2022-09-30T12:00:49.762Z,4.35
2022-09-30T12:03:29.038Z,4.43
2022-09-30T12:06:01.821Z,4.25
2022-09-30T12:08:44.054Z,4.22
2022-09-30T12:11:16.791Z,4.18
2022-09-30T12:13:51.907Z,4.00
2022-09-30T12:16:24.889Z,4.20
2022-09-30T12:18:58.543Z,3.70
2022-09-30T12:21:44.686Z,3.80
2022-09-30T12:24:23.995Z,4.10
2022-09-30T12:26:51.793Z,4.60
2022-09-30T12:29:43.514Z,4.82
2022-09-30T12:32:21.599Z,3.75
2022-09-30T12:35:07.495Z,3.28
2022-09-30T12:38:03.029Z,3.47
2022-09-30T12:40:35.893Z,3.30
2022-09-30T12:43:14.573Z,3.60
2022-09-30T12:46:13.522Z,4.32
2022-09-30T12:48:44.087Z,4.70
2022-09-30T12:51:23.102Z,3.88
2022-09-30T12:53:57.394Z,3.85
2022-09-30T12:56:29.282Z,3.88
2022-09-30T12:58:57.976Z,3.53
2022-09-30T13:01:31.086Z,3.90
2022-09-30T13:04:00.771Z,4.70
2022-09-30T13:06:46.456Z,3.90
2022-09-30T13:09:17.568Z,3.88
2022-09-30T13:11:45.326Z,3.20
2022-09-30T13:14:32.953Z,3.43
2022-09-30T13:17:08.782Z,2.95
2022-09-30T13:19:41.498Z,3.13
2022-09-30T13:22:29.839Z,3.72
2022-09-30T13:25:05.603Z,3.22
2022-09-30T13:27:36.823Z,3.15
2022-09-30T13:30:25.777Z,3.08
2022-09-30T13:32:57.456Z,3.10
2022-09-30T13:35:40.293Z,4.18
2022-09-30T13:38:16.934Z,3.15
2022-09-30T13:41:08.011Z,4.05
2022-09-30T13:43:51.150Z,3.40
2022-09-30T13:46:39.909Z,3.05
2022-09-30T13:49:18.393Z,4.18
2022-09-30T13:51:46.253Z,3.60
2022-09-30T13:54:29.925Z,3.55
2022-09-30T13:56:59.900Z,3.33
2022-09-30T13:59:48.180Z,3.05
2022-09-30T14:02:34.107Z,3.65
2022-09-30T14:05:23.065Z,4.07
2022-09-30T14:08:14.740Z,3.07
2022-09-30T14:10:58.703Z,3.40
2022-09-30T14:13:56.490Z,3.20
2022-09-30T14:16:41.367Z,3.47
2022-09-30T14:19:15.641Z,2.97
2022-09-30T14:21:57.734Z,2.92
2022-09-30T14:24:33.946Z,3.60
2022-09-30T14:27:19.503Z,4.18
2022-09-30T14:29:46.209Z,4.28
2022-09-30T14:32:46.380Z,3.63
2022-09-30T14:35:24.014Z,3.22
2022-09-30T14:37:54.755Z,4.18
2022-09-30T14:40:30.670Z,2.80
2022-09-30T14:43:02.889Z,4.38
2022-09-30T14:45:34.267Z,3.60
2022-09-30T14:48:14.005Z,3.65
2022-09-30T14:50:57.311Z,3.28
2022-09-30T14:53:29.119Z,3.40
2022-09-30T14:55:56.601Z,3.75
2022-09-30T14:58:28.692Z,3.65
2022-09-30T15:01:04.057Z,3.13
2022-09-30T15:03:35.581Z,3.13
2022-09-30T15:06:03.621Z,3.47
2022-09-30T15:08:30.580Z,2.58
2022-09-30T15:10:58.233Z,3.38
2022-09-30T15:13:29.290Z,4.00
2022-09-30T15:15:56.351Z,3.13
2022-09-30T15:18:25.684Z,3.40
2022-09-30T15:20:55.288Z,3.53
2022-09-30T15:25:57.448Z,2.40
2022-09-30T15:28:25.974Z,1.85
2022-09-30T15:30:56.732Z,1.95
2022-09-30T15:33:31.923Z,3.22
2022-09-30T15:36:12.495Z,1.58
2022-09-30T15:38:39.554Z,2.35
2022-09-30T15:41:11.655Z,2.65
2022-09-30T15:43:45.152Z,3.10
2022-09-30T15:46:30.635Z,2.53
2022-09-30T15:49:04.127Z,4.20
2022-09-30T15:51:37.891Z,2.22
2022-09-30T15:54:26.766Z,5.07
2022-09-30T15:56:53.756Z,2.63
2022-09-30T15:59:22.479Z,1.85
2022-09-30T16:01:52.465Z,3.55
2022-09-30T16:04:19.860Z,2.70
2022-09-30T16:06:48.462Z,2.67
2022-09-30T16:09:28.181Z,3.70
2022-09-30T16:12:12.309Z,3.90
2022-09-30T16:14:55.814Z,1.95
2022-09-30T16:17:24.469Z,3.83
2022-09-30T16:20:00.866Z,3.10
2022-09-30T16:22:40.085Z,4.55
2022-09-30T16:25:11.169Z,4.78
2022-09-30T16:27:38.935Z,3.65
2022-09-30T16:30:07.071Z,3.60
2022-09-30T16:32:40.312Z,2.60
2022-09-30T16:35:16.379Z,2.47
2022-09-30T16:37:44.249Z,2.35
2022-09-30T16:40:25.415Z,2.58
2022-09-30T16:42:55.981Z,2.17
2022-09-30T16:45:23.457Z,1.95
2022-09-30T16:47:50.797Z,1.48
2022-09-30T16:50:30.437Z,2.05
2022-09-30T16:52:57.801Z,2.22
2022-09-30T16:55:26.904Z,2.85
2022-09-30T16:57:57.945Z,3.33
2022-09-30T17:00:28.387Z,3.35
2022-09-30T17:02:55.633Z,4.43
2022-09-30T17:05:25.236Z,2.17
2022-09-30T17:07:54.627Z,4.43
2022-09-30T17:10:25.799Z,3.33
2022-09-30T17:12:53.555Z,3.83
2022-09-30T17:15:20.823Z,3.65
2022-09-30T17:17:48.161Z,2.13
2022-09-30T17:20:15.249Z,2.92
2022-09-30T17:22:42.317Z,3.25
2022-09-30T17:25:10.327Z,1.65
2022-09-30T17:27:39.580Z,4.10
2022-09-30T17:30:08.747Z,3.35
2022-09-30T17:32:36.723Z,3.22
2022-09-30T17:35:08.046Z,3.85
2022-09-30T17:37:37.945Z,4.15
2022-09-30T17:40:26.965Z,2.08
2022-09-30T17:43:13.338Z,4.13
2022-09-30T17:45:43.170Z,4.05
2022-09-30T17:48:12.584Z,3.90
2022-09-30T17:50:44.885Z,2.20
2022-09-30T17:53:14.518Z,3.78
2022-09-30T17:55:41.956Z,1.85
2022-09-30T17:58:11.559Z,2.75
2022-09-30T18:00:39.154Z,3.95
2022-09-30T18:03:06.542Z,2.00
2022-09-30T18:05:33.589Z,2.60
2022-09-30T18:08:00.945Z,2.15
2022-09-30T18:10:28.352Z,2.05
2022-09-30T18:12:55.328Z,3.83
2022-09-30T18:15:23.060Z,3.45
2022-09-30T18:17:50.124Z,3.42
2022-09-30T18:20:20.686Z,3.13
2022-09-30T18:22:50.322Z,6.30
2022-09-30T18:25:19.951Z,2.58
2022-09-30T18:27:48.685Z,4.00
2022-09-30T18:30:16.059Z,3.25
2022-09-30T18:32:48.182Z,4.53
2022-09-30T18:35:17.168Z,1.95
2022-09-30T18:37:47.289Z,2.00
2022-09-30T18:40:17.555Z,5.50
2022-09-30T18:42:44.541Z,4.50
2022-09-30T18:45:12.796Z,3.22
2022-09-30T18:47:42.422Z,2.70
2022-09-30T18:50:11.704Z,3.90
2022-09-30T18:52:40.511Z,1.67
2022-09-30T18:55:09.690Z,4.93
2022-09-30T18:57:36.706Z,4.03
2022-09-30T19:00:04.981Z,3.67
2022-09-30T19:02:32.694Z,4.40
2022-09-30T19:05:00.904Z,5.00
2022-09-30T19:07:28.474Z,3.17
2022-09-30T19:09:57.705Z,4.15
2022-09-30T19:12:27.528Z,2.45
2022-09-30T19:14:55.344Z,3.97
2022-09-30T19:17:22.296Z,6.55
2022-09-30T19:19:50.731Z,3.35
2022-09-30T19:22:18.148Z,3.70
2022-09-30T19:24:46.287Z,3.42
2022-09-30T19:27:14.075Z,6.10
2022-09-30T19:29:40.886Z,4.38
2022-09-30T19:32:12.819Z,6.47
2022-09-30T19:34:39.956Z,3.83
2022-09-30T19:37:17.262Z,4.57
2022-09-30T19:39:50.815Z,4.15
2022-09-30T19:42:18.367Z,4.35
2022-09-30T19:44:45.285Z,3.47
2022-09-30T19:47:12.443Z,5.10
2022-09-30T19:49:39.368Z,4.95
2022-09-30T19:52:16.319Z,4.30
2022-09-30T19:54:48.922Z,4.97
2022-09-30T19:57:16.116Z,3.83
2022-09-30T19:59:43.117Z,5.45
2022-09-30T20:02:11.532Z,4.53
2022-09-30T20:04:39.662Z,4.20
2022-09-30T20:07:06.929Z,5.40
2022-09-30T20:09:34.315Z,2.75
2022-09-30T20:12:01.369Z,2.53
2022-09-30T20:14:47.283Z,3.70
2022-09-30T20:17:14.110Z,4.55
2022-09-30T20:19:40.984Z,4.28
2022-09-30T20:22:07.876Z,5.60
2022-09-30T20:24:34.853Z,4.88
2022-09-30T20:27:01.940Z,4.60
2022-09-30T20:29:29.075Z,5.93
2022-09-30T20:31:56.006Z,2.28
2022-09-30T20:34:24.260Z,6.22
2022-09-30T20:36:51.318Z,4.68
2022-09-30T20:39:18.343Z,3.92
2022-09-30T20:41:45.954Z,2.95
2022-09-30T20:44:13.135Z,5.03
2022-09-30T20:46:41.765Z,4.60
2022-09-30T20:49:09.410Z,4.07
2022-09-30T20:51:36.480Z,5.05
2022-09-30T20:54:03.567Z,3.08
2022-09-30T20:56:49.637Z,2.20
2022-09-30T20:59:17.981Z,4.45
2022-09-30T21:01:46.020Z,2.75
2022-09-30T21:04:13.726Z,6.28
2022-09-30T21:06:40.526Z,3.45
2022-09-30T21:09:07.515Z,2.42
2022-09-30T21:11:34.615Z,4.15
2022-09-30T21:14:02.069Z,1.42
2022-09-30T21:16:29.747Z,5.63
2022-09-30T21:18:56.861Z,4.32
2022-09-30T21:21:25.729Z,2.20
2022-09-30T21:23:57.489Z,3.45
2022-09-30T21:26:26.792Z,4.28
2022-09-30T21:28:53.842Z,4.47
2022-09-30T21:31:26.711Z,5.10
2022-09-30T21:33:56.404Z,3.35
2022-09-30T21:36:24.230Z,5.60
2022-09-30T21:38:52.244Z,2.53
2022-09-30T21:41:19.932Z,4.63
2022-09-30T21:43:47.669Z,4.95
2022-09-30T21:46:15.948Z,4.35
2022-09-30T21:48:42.989Z,3.75
2022-09-30T21:51:10.420Z,3.45
2022-09-30T21:53:38.908Z,3.58
2022-09-30T21:56:11.559Z,2.35
2022-09-30T21:58:38.961Z,3.50
2022-09-30T22:01:07.107Z,5.40
2022-09-30T22:03:37.840Z,1.98
2022-09-30T22:06:07.572Z,4.03
2022-09-30T22:08:40.222Z,4.15
2022-09-30T22:11:11.185Z,3.53
2022-09-30T22:13:40.761Z,4.38
2022-09-30T22:16:08.636Z,2.88
2022-09-30T22:18:36.059Z,4.38
2022-09-30T22:21:05.517Z,4.20
2022-09-30T22:23:32.549Z,3.22
2022-09-30T22:26:27.101Z,3.17
2022-09-30T22:28:57.583Z,2.05
2022-09-30T22:31:26.766Z,6.00
2022-09-30T22:34:14.982Z,4.53
2022-09-30T22:37:01.316Z,3.20
2022-09-30T22:39:29.479Z,2.67
2022-09-30T22:41:57.630Z,4.20
2022-09-30T22:44:28.073Z,3.92
2022-09-30T22:46:57.503Z,2.97
2022-09-30T22:49:25.296Z,1.17
2022-09-30T22:51:57.082Z,2.60
2022-09-30T22:54:26.674Z,1.58
2022-09-30T22:56:55.013Z,2.75
2022-09-30T22:59:23.558Z,1.92
2022-09-30T23:01:53.813Z,2.88
2022-09-30T23:04:34.345Z,3.10
2022-09-30T23:07:02.485Z,2.90
2022-09-30T23:09:31.198Z,3.38
2022-09-30T23:11:58.163Z,5.10
2022-09-30T23:14:25.285Z,1.52
2022-09-30T23:16:52.184Z,2.75
2022-09-30T23:19:20.183Z,2.03
2022-09-30T23:21:47.286Z,1.33
2022-09-30T23:24:14.988Z,1.30
2022-09-30T23:26:41.883Z,2.15
2022-09-30T23:29:12.190Z,2.90
2022-09-30T23:31:41.975Z,3.83
2022-09-30T23:34:09.220Z,2.55
2022-09-30T23:36:37.187Z,1.00
2022-09-30T23:39:08.220Z,2.15
2022-09-30T23:41:35.817Z,2.33
2022-09-30T23:44:04.553Z,1.98
2022-09-30T23:46:32.049Z,2.85
2022-09-30T23:48:59.224Z,2.03
2022-09-30T23:51:26.008Z,1.92
2022-09-30T23:53:53.040Z,2.65
2022-09-30T23:56:20.050Z,1.52
2022-09-30T23:58:47.527Z,2.45
